Time;durP1;ratioP1;P1;durP2;ratioP2;P2;SDS_P1;SDS_P2;PMS_P1;PMS_P2;Temp;Humidity;BMP_temperature;BMP_pressure;BME280_temperature;BME280_humidity;BME280_pressure;Samples;Min_cycle;Max_cycle;Signal;HPM_P1;HPM_P2
2023/12/21 00:00:09;;;;;;;11.20;10.10;;;8.10;1.00;;;;;;4994509;28;20192;-68
2023/12/21 00:02:36;;;;;;;12.37;9.73;;;8.10;1.00;;;;;;4990654;28;20208;-70
2023/12/21 00:05:03;;;;;;;12.63;9.77;;;8.10;1.00;;;;;;4991094;28;20292;-70
2023/12/21 00:07:30;;;;;;;11.23;10.23;;;8.10;1.00;;;;;;5007581;28;20696;-70
2023/12/21 00:09:57;;;;;;;12.23;9.90;;;8.10;1.00;;;;;;5004034;28;20230;-70
2023/12/21 00:12:24;;;;;;;10.37;9.27;;;8.10;1.00;;;;;;5006278;28;20300;-70
2023/12/21 00:14:51;;;;;;;9.57;8.40;;;8.10;1.00;;;;;;4969175;28;20260;-68
2023/12/21 00:17:19;;;;;;;10.53;9.53;;;8.10;1.00;;;;;;5006577;28;20197;-68
2023/12/21 00:19:46;;;;;;;11.80;9.33;;;8.10;1.00;;;;;;5005032;28;20658;-70
2023/12/21 00:22:13;;;;;;;9.60;8.70;;;8.10;1.00;;;;;;4993936;28;20212;-68
2023/12/21 00:24:40;;;;;;;11.60;9.50;;;8.10;1.00;;;;;;4982865;28;20307;-70
2023/12/21 00:27:07;;;;;;;10.27;9.00;;;8.20;1.00;;;;;;5010809;28;20618;-70
2023/12/21 00:29:34;;;;;;;10.17;9.00;;;8.20;1.00;;;;;;4992615;28;20646;-70
2023/12/21 00:32:01;;;;;;;9.20;8.40;;;8.20;1.00;;;;;;4985167;28;20213;-70
2023/12/21 00:34:28;;;;;;;9.30;8.40;;;8.20;1.00;;;;;;5010079;28;20196;-69
2023/12/21 00:36:55;;;;;;;9.97;8.97;;;8.20;1.00;;;;;;4991744;28;20200;-69
2023/12/21 00:39:22;;;;;;;9.47;8.57;;;8.20;1.00;;;;;;4995589;28;20212;-69
2023/12/21 00:41:51;;;;;;;9.40;8.50;;;8.20;1.00;;;;;;4992963;28;20204;-69
2023/12/21 00:44:18;;;;;;;9.87;8.97;;;8.20;1.00;;;;;;4990121;28;20715;-69
2023/12/21 00:46:45;;;;;;;8.93;8.03;;;8.20;1.00;;;;;;4993182;28;20201;-70
2023/12/21 00:49:12;;;;;;;10.23;9.10;;;8.20;1.00;;;;;;4979731;28;20201;-69
2023/12/21 00:51:39;;;;;;;8.73;7.93;;;8.30;1.00;;;;;;4987898;28;20217;-70
2023/12/21 00:54:06;;;;;;;8.73;8.00;;;8.20;1.00;;;;;;4991062;28;20747;-70
2023/12/21 00:56:33;;;;;;;8.73;8.03;;;8.30;1.00;;;;;;5009446;28;20629;-70
2023/12/21 00:59:00;;;;;;;9.87;8.97;;;8.20;1.00;;;;;;5011148;28;20613;-70
2023/12/21 01:01:27;;;;;;;9.70;8.80;;;8.20;1.00;;;;;;4990833;28;20268;-70
2023/12/21 01:03:54;;;;;;;9.30;8.57;;;8.30;1.00;;;;;;4994560;28;20205;-70
2023/12/21 01:06:22;;;;;;;9.03;8.27;;;8.30;1.00;;;;;;4987340;28;20221;-70
2023/12/21 01:08:49;;;;;;;9.77;8.87;;;8.20;1.00;;;;;;5001538;28;20662;-69
2023/12/21 01:11:16;;;;;;;10.00;9.00;;;8.30;1.00;;;;;;5010426;28;20208;-64
2023/12/21 01:13:43;;;;;;;9.27;8.47;;;8.30;1.00;;;;;;4976253;28;20194;-62
2023/12/21 01:16:10;;;;;;;10.30;8.67;;;8.30;1.00;;;;;;5010201;28;20275;-62
2023/12/21 01:18:37;;;;;;;9.80;9.00;;;8.30;1.00;;;;;;5008845;28;20193;-63
2023/12/21 01:21:04;;;;;;;9.57;8.77;;;8.30;1.00;;;;;;4988608;28;20264;-64
2023/12/21 01:23:31;;;;;;;9.00;8.27;;;8.30;1.00;;;;;;5007300;28;20202;-66
2023/12/21 01:25:58;;;;;;;10.20;9.20;;;8.30;1.00;;;;;;5005318;28;20242;-65
2023/12/21 01:28:25;;;;;;;9.87;9.07;;;8.30;1.00;;;;;;4975272;28;20246;-64
2023/12/21 01:30:52;;;;;;;9.57;8.67;;;8.30;1.00;;;;;;5007991;28;20668;-68
2023/12/21 01:33:22;;;;;;;11.13;10.00;;;8.30;1.00;;;;;;5008740;28;20594;-68
2023/12/21 01:35:49;;;;;;;13.23;9.00;;;8.30;1.00;;;;;;4967973;28;20576;-69
2023/12/21 01:38:17;;;;;;;9.27;8.43;;;8.30;1.00;;;;;;4993235;28;20207;-69
2023/12/21 01:40:44;;;;;;;9.63;8.73;;;8.30;1.00;;;;;;4987849;28;20208;-69
2023/12/21 01:43:12;;;;;;;10.37;9.37;;;8.30;1.00;;;;;;4978753;28;20267;-69
2023/12/21 01:45:38;;;;;;;10.03;9.13;;;8.40;1.00;;;;;;4987078;28;20606;-70
2023/12/21 01:48:06;;;;;;;10.67;9.63;;;8.40;1.00;;;;;;5006305;28;20295;-70
2023/12/21 01:50:33;;;;;;;11.13;10.17;;;8.40;1.00;;;;;;4997751;28;20295;-69
2023/12/21 01:53:01;;;;;;;11.10;10.10;;;8.40;1.00;;;;;;5008323;28;20558;-70
2023/12/21 01:55:29;;;;;;;10.70;9.77;;;8.40;1.00;;;;;;4991401;28;20227;-69
2023/12/21 01:57:58;;;;;;;11.03;10.13;;;8.40;1.00;;;;;;5001528;28;20302;-69
2023/12/21 02:00:26;;;;;;;10.37;9.37;;;8.40;1.00;;;;;;4990749;28;20193;-69
2023/12/21 02:02:53;;;;;;;10.13;9.13;;;8.40;1.00;;;;;;5004012;28;20657;-69
2023/12/21 02:05:20;;;;;;;10.60;9.60;;;8.40;1.00;;;;;;5003232;28;20214;-69
2023/12/21 02:07:48;;;;;;;10.10;9.13;;;8.40;1.00;;;;;;4986518;28;20205;-69
2023/12/21 02:10:14;;;;;;;9.67;8.77;;;8.40;1.00;;;;;;4969984;28;20213;-69
2023/12/21 02:12:41;;;;;;;10.07;9.07;;;8.40;1.00;;;;;;5008555;28;20798;-69
2023/12/21 02:15:09;;;;;;;9.17;8.37;;;8.40;1.00;;;;;;4990472;28;20515;-69
2023/12/21 02:17:38;;;;;;;8.83;8.13;;;8.40;1.00;;;;;;5004834;28;20287;-69
2023/12/21 02:20:06;;;;;;;8.70;7.90;;;8.40;1.00;;;;;;5006186;28;20193;-69
2023/12/21 02:22:34;;;;;;;8.27;7.57;;;8.40;1.00;;;;;;5006754;28;20232;-69
2023/12/21 02:25:02;;;;;;;8.93;8.07;;;8.40;1.00;;;;;;5005247;28;20548;-69
2023/12/21 02:27:29;;;;;;;8.30;7.60;;;8.40;1.00;;;;;;5004284;28;20236;-68
2023/12/21 02:29:57;;;;;;;8.67;7.87;;;8.50;1.00;;;;;;4997162;28;20202;-69
2023/12/21 02:32:24;;;;;;;7.87;7.27;;;8.50;1.00;;;;;;4987283;28;20209;-69
2023/12/21 02:34:51;;;;;;;8.37;7.77;;;8.50;1.00;;;;;;5006278;28;20193;-68
2023/12/21 02:37:19;;;;;;;8.80;8.10;;;8.50;1.00;;;;;;4996383;28;20261;-68
2023/12/21 02:39:46;;;;;;;8.30;7.70;;;8.50;1.00;;;;;;5006079;28;20297;-64
2023/12/21 02:42:13;;;;;;;8.87;8.10;;;8.50;1.00;;;;;;5001070;28;20541;-64
2023/12/21 02:44:40;;;;;;;9.63;8.63;;;8.50;1.00;;;;;;4990699;28;20300;-65
2023/12/21 02:47:07;;;;;;;9.13;8.40;;;8.50;1.00;;;;;;5007607;28;20197;-64
2023/12/21 02:49:34;;;;;;;9.37;8.57;;;8.50;1.00;;;;;;4986857;28;20267;-64
2023/12/21 02:52:01;;;;;;;8.57;7.97;;;8.50;1.00;;;;;;4997865;28;20213;-64
2023/12/21 02:54:28;;;;;;;7.77;7.27;;;8.50;1.00;;;;;;4974330;28;20561;-64
2023/12/21 02:56:55;;;;;;;7.80;7.17;;;8.60;1.00;;;;;;5004764;28;20629;-64
2023/12/21 02:59:22;;;;;;;8.70;8.00;;;8.50;1.00;;;;;;4983321;28;20201;-64
2023/12/21 03:05:49;;;;;;;8.57;7.87;;;8.50;1.00;;;;;;4998673;28;20278;-64
2023/12/21 03:08:16;;;;;;;9.80;8.97;;;8.60;1.00;;;;;;5007521;28;20189;-64
2023/12/21 03:10:43;;;;;;;8.60;7.83;;;8.50;1.00;;;;;;5004571;28;20216;-64
2023/12/21 03:13:10;;;;;;;8.73;8.03;;;8.60;1.00;;;;;;4986888;28;20544;-64
2023/12/21 03:15:37;;;;;;;8.23;7.60;;;8.60;1.00;;;;;;4989816;28;20201;-64
2023/12/21 03:18:05;;;;;;;8.83;8.13;;;8.60;1.00;;;;;;4974807;28;20630;-63
2023/12/21 03:20:35;;;;;;;9.13;8.33;;;8.60;1.00;;;;;;5001848;28;20234;-64
2023/12/21 03:23:02;;;;;;;9.23;8.40;;;8.60;1.00;;;;;;4993687;28;20746;-64
2023/12/21 03:25:29;;;;;;;8.97;8.17;;;8.60;1.00;;;;;;5009583;28;20263;-64
2023/12/21 03:27:56;;;;;;;9.90;8.93;;;8.60;1.00;;;;;;5009018;28;20268;-63
2023/12/21 03:30:23;;;;;;;8.97;8.27;;;8.60;1.00;;;;;;5007318;28;20238;-64
2023/12/21 03:32:50;;;;;;;9.90;9.10;;;8.60;1.00;;;;;;4989430;28;20818;-64
2023/12/21 03:35:18;;;;;;;9.30;8.50;;;8.60;1.00;;;;;;4992492;28;20207;-65
2023/12/21 03:37:45;;;;;;;9.43;8.53;;;8.60;1.00;;;;;;4993106;28;20573;-62
2023/12/21 03:40:13;;;;;;;10.13;9.23;;;8.70;1.00;;;;;;4975501;28;20208;-64
2023/12/21 03:42:40;;;;;;;9.50;8.67;;;8.60;1.00;;;;;;5010846;28;20193;-64
2023/12/21 03:45:07;;;;;;;9.53;8.70;;;8.60;1.00;;;;;;5007622;28;20216;-62
2023/12/21 03:47:34;;;;;;;9.03;8.33;;;8.60;1.00;;;;;;4989384;28;20194;-62
2023/12/21 03:50:01;;;;;;;9.50;8.40;;;8.60;1.00;;;;;;4989355;28;20219;-67
2023/12/21 03:52:28;;;;;;;9.80;8.90;;;8.60;1.00;;;;;;4990728;28;20287;-68
2023/12/21 03:54:55;;;;;;;8.77;8.07;;;8.60;1.00;;;;;;4997684;28;20243;-67
2023/12/21 03:57:22;;;;;;;8.90;8.10;;;8.60;1.00;;;;;;5009354;28;20551;-68
2023/12/21 03:59:49;;;;;;;8.70;7.87;;;8.60;1.00;;;;;;4976908;28;20205;-69
2023/12/21 04:02:16;;;;;;;9.10;8.20;;;8.60;1.00;;;;;;4987498;28;20202;-69
2023/12/21 04:04:43;;;;;;;9.30;8.43;;;8.60;1.00;;;;;;4991250;28;20202;-69
2023/12/21 04:07:10;;;;;;;8.93;8.13;;;8.60;1.00;;;;;;4984827;28;20198;-70
2023/12/21 04:09:38;;;;;;;8.33;7.63;;;8.60;1.00;;;;;;5003438;28;20193;-69
2023/12/21 04:12:06;;;;;;;8.47;7.70;;;8.60;1.00;;;;;;5001685;28;20602;-69
2023/12/21 04:14:33;;;;;;;8.83;8.10;;;8.60;1.00;;;;;;4989039;28;20190;-69
2023/12/21 04:17:00;;;;;;;8.03;7.37;;;8.60;1.00;;;;;;4992828;28;20197;-69
2023/12/21 04:19:27;;;;;;;9.43;8.60;;;8.70;1.00;;;;;;4992132;28;20193;-69
2023/12/21 04:21:57;;;;;;;17.47;13.40;;;8.60;1.00;;;;;;5000911;28;20272;-69
2023/12/21 04:24:24;;;;;;;10.60;9.67;;;8.60;1.00;;;;;;4990896;28;20208;-69
2023/12/21 04:26:51;;;;;;;8.83;8.13;;;8.70;1.00;;;;;;4989808;28;20692;-68
2023/12/21 04:29:18;;;;;;;9.13;8.27;;;8.70;1.00;;;;;;5006525;28;20227;-67
2023/12/21 04:31:45;;;;;;;10.97;9.37;;;8.70;1.00;;;;;;4985426;28;20264;-68
2023/12/21 04:34:12;;;;;;;9.07;8.27;;;8.60;1.00;;;;;;5005813;28;20215;-68
2023/12/21 04:36:39;;;;;;;9.77;8.97;;;8.70;1.00;;;;;;5010495;28;20268;-68
2023/12/21 04:39:06;;;;;;;11.03;9.93;;;8.70;1.00;;;;;;5009884;28;20216;-63
2023/12/21 04:41:33;;;;;;;10.20;9.33;;;8.60;1.00;;;;;;5005427;28;20243;-63
2023/12/21 04:44:00;;;;;;;8.70;8.00;;;8.60;1.00;;;;;;4993231;28;20201;-62
2023/12/21 04:46:27;;;;;;;9.50;8.60;;;8.60;1.00;;;;;;4976084;28;20215;-62
2023/12/21 04:48:54;;;;;;;8.07;7.37;;;8.60;1.00;;;;;;5003547;28;20193;-62
2023/12/21 04:51:21;;;;;;;9.30;8.60;;;8.60;1.00;;;;;;5004850;28;20205;-62
2023/12/21 04:53:48;;;;;;;8.47;7.87;;;8.60;1.00;;;;;;5005726;28;20613;-61
2023/12/21 04:56:15;;;;;;;8.90;8.30;;;8.60;1.00;;;;;;5008512;28;20601;-61
2023/12/21 04:58:42;;;;;;;8.57;7.87;;;8.60;1.00;;;;;;5008420;28;20259;-62
2023/12/21 05:01:09;;;;;;;8.30;7.70;;;8.60;1.00;;;;;;4994919;28;20192;-68
2023/12/21 05:03:36;;;;;;;7.60;7.00;;;8.60;1.00;;;;;;4990059;28;20201;-68
2023/12/21 05:06:04;;;;;;;8.33;7.60;;;8.60;1.00;;;;;;4972439;28;20233;-68
2023/12/21 05:08:31;;;;;;;7.20;6.70;;;8.70;1.00;;;;;;5011331;28;21016;-68
2023/12/21 05:10:58;;;;;;;7.47;6.97;;;8.60;1.00;;;;;;4988169;28;20201;-68
2023/12/21 05:13:25;;;;;;;7.47;6.97;;;8.60;1.00;;;;;;4991232;28;20217;-68
2023/12/21 05:15:52;;;;;;;7.53;6.83;;;8.60;1.00;;;;;;4992774;28;20218;-69
2023/12/21 05:18:19;;;;;;;9.13;7.47;;;8.60;1.00;;;;;;5006832;28;20204;-68
2023/12/21 05:20:46;;;;;;;7.57;6.97;;;8.60;1.00;;;;;;4991624;28;20193;-67
2023/12/21 05:23:13;;;;;;;8.03;7.43;;;8.70;1.00;;;;;;4983087;28;20201;-68
2023/12/21 05:25:40;;;;;;;7.37;6.83;;;8.70;1.00;;;;;;4997151;28;20201;-68
2023/12/21 05:28:11;;;;;;;8.00;7.27;;;8.70;1.00;;;;;;4989164;28;20566;-68
2023/12/21 05:30:38;;;;;;;7.33;6.83;;;8.60;1.00;;;;;;4972427;28;20201;-69
2023/12/21 05:33:05;;;;;;;7.60;7.03;;;8.70;1.00;;;;;;4991676;28;20212;-69
2023/12/21 05:35:32;;;;;;;6.80;6.40;;;8.70;1.00;;;;;;5010562;28;20668;-69
2023/12/21 05:38:00;;;;;;;7.00;6.57;;;8.70;1.00;;;;;;4991376;28;20216;-69
2023/12/21 05:40:27;;;;;;;6.97;6.57;;;8.70;1.00;;;;;;4989248;28;20200;-68
2023/12/21 05:42:54;;;;;;;6.83;6.13;;;8.60;1.00;;;;;;5013598;28;20207;-66
2023/12/21 05:45:21;;;;;;;7.20;6.60;;;8.70;1.00;;;;;;5004681;28;20209;-68
2023/12/21 05:47:47;;;;;;;7.57;6.80;;;8.70;1.00;;;;;;4993572;28;20201;-68
2023/12/21 05:50:14;;;;;;;6.87;6.47;;;8.70;1.00;;;;;;4992006;28;20283;-64
2023/12/21 05:52:41;;;;;;;7.23;6.80;;;8.70;1.00;;;;;;4971579;28;20240;-64
2023/12/21 05:55:14;;;;;;;6.83;6.43;;;8.70;1.00;;;;;;4993723;28;20673;-63
2023/12/21 05:57:43;;;;;;;6.80;6.40;;;8.70;1.00;;;;;;4998575;28;20197;-63
2023/12/21 06:00:11;;;;;;;6.67;6.27;;;8.70;1.00;;;;;;4975714;28;20193;-63
2023/12/21 06:02:38;;;;;;;7.20;6.60;;;8.70;1.00;;;;;;5006231;28;20338;-63
2023/12/21 06:05:05;;;;;;;6.93;6.23;;;8.70;1.00;;;;;;5004427;28;20186;-63
2023/12/21 06:07:33;;;;;;;6.87;6.47;;;8.70;1.00;;;;;;5018746;28;20622;-64
2023/12/21 06:10:00;;;;;;;7.07;6.50;;;8.70;1.00;;;;;;5017522;28;20198;-69
2023/12/21 06:12:27;;;;;;;7.00;6.50;;;8.70;1.00;;;;;;5022499;28;20270;-69
2023/12/21 06:14:54;;;;;;;6.90;6.50;;;8.70;1.00;;;;;;4994311;28;20255;-68
2023/12/21 06:17:21;;;;;;;6.90;6.50;;;8.70;1.00;;;;;;5010069;28;20941;-68
2023/12/21 06:19:49;;;;;;;7.30;6.80;;;8.70;1.00;;;;;;5019438;28;20635;-69
2023/12/21 06:22:17;;;;;;;6.33;5.93;;;8.70;1.00;;;;;;5013815;28;20260;-69
2023/12/21 06:24:44;;;;;;;6.70;6.30;;;8.70;1.00;;;;;;4992894;28;20240;-68
2023/12/21 06:27:11;;;;;;;6.80;6.40;;;8.70;1.00;;;;;;5010135;28;20693;-69
2023/12/21 06:29:38;;;;;;;7.07;6.47;;;8.70;1.00;;;;;;4990341;28;20212;-69
2023/12/21 06:32:06;;;;;;;6.93;6.53;;;8.70;1.00;;;;;;5008613;28;20200;-68
2023/12/21 06:34:33;;;;;;;7.33;6.83;;;8.70;1.00;;;;;;5001637;28;20221;-69
2023/12/21 06:37:01;;;;;;;7.30;6.90;;;8.70;1.00;;;;;;5007927;28;20208;-68
2023/12/21 06:39:28;;;;;;;6.93;6.43;;;8.70;1.00;;;;;;4991069;28;20185;-69
2023/12/21 06:41:55;;;;;;;6.83;6.43;;;8.80;1.00;;;;;;5008958;28;20303;-69
2023/12/21 06:44:22;;;;;;;7.47;6.90;;;8.70;1.00;;;;;;5018687;28;20564;-68
2023/12/21 06:46:49;;;;;;;6.63;6.13;;;8.80;1.00;;;;;;4990859;28;20207;-69
2023/12/21 06:49:16;;;;;;;6.90;6.50;;;8.70;1.00;;;;;;5008661;28;20291;-69
2023/12/21 06:51:44;;;;;;;7.60;6.90;;;8.70;1.00;;;;;;4999864;28;20208;-69
2023/12/21 06:54:12;;;;;;;7.17;6.67;;;8.80;1.00;;;;;;5008645;28;20526;-68
2023/12/21 06:56:39;;;;;;;7.37;6.80;;;8.90;1.00;;;;;;4991471;28;20676;-69
2023/12/21 06:59:06;;;;;;;8.10;7.47;;;8.80;1.00;;;;;;5008466;28;20868;-63
2023/12/21 07:01:34;;;;;;;8.00;7.20;;;8.80;1.00;;;;;;4996935;28;20201;-64
2023/12/21 07:04:01;;;;;;;7.67;7.07;;;8.80;1.00;;;;;;5008114;28;20355;-63
2023/12/21 07:06:28;;;;;;;7.47;6.97;;;8.80;1.00;;;;;;5002127;28;20211;-63
2023/12/21 07:08:55;;;;;;;6.93;6.43;;;8.80;1.00;;;;;;5007968;28;20860;-64
2023/12/21 07:11:23;;;;;;;7.47;6.87;;;8.90;1.00;;;;;;4988167;28;20197;-63
2023/12/21 07:13:50;;;;;;;7.60;7.00;;;8.80;1.00;;;;;;5001743;28;20239;-62
2023/12/21 07:16:20;;;;;;;7.80;7.20;;;8.80;1.00;;;;;;5008693;28;20226;-63
2023/12/21 07:18:47;;;;;;;8.20;7.40;;;8.80;1.00;;;;;;5010624;28;20197;-63
2023/12/21 07:21:14;;;;;;;8.00;7.33;;;8.90;1.00;;;;;;5008375;28;20196;-70
2023/12/21 07:23:41;;;;;;;9.63;8.57;;;8.80;1.00;;;;;;5008316;28;20207;-69
2023/12/21 07:26:10;;;;;;;9.57;7.50;;;8.90;1.00;;;;;;5008269;28;20632;-70
2023/12/21 07:28:37;;;;;;;8.87;7.97;;;8.90;1.00;;;;;;5007649;28;20240;-69
2023/12/21 07:31:04;;;;;;;8.10;7.40;;;8.90;1.00;;;;;;4990658;28;20212;-69
2023/12/21 07:33:32;;;;;;;9.17;7.80;;;8.90;1.00;;;;;;5007496;28;20216;-69
2023/12/21 07:35:58;;;;;;;8.47;7.20;;;8.90;1.00;;;;;;5001390;28;20874;-69
2023/12/21 07:38:25;;;;;;;8.80;7.67;;;8.90;1.00;;;;;;5005453;28;20247;-69
2023/12/21 07:40:52;;;;;;;9.40;8.10;;;8.90;1.00;;;;;;4990624;28;20193;-70
2023/12/21 07:43:20;;;;;;;9.77;8.37;;;8.80;1.00;;;;;;5007890;28;20266;-69
2023/12/21 07:45:47;;;;;;;8.77;8.07;;;8.90;1.00;;;;;;5001555;28;20251;-70
2023/12/21 07:48:14;;;;;;;9.03;8.10;;;8.90;1.00;;;;;;4990186;28;20229;-69
2023/12/21 07:50:41;;;;;;;9.37;8.57;;;8.90;1.00;;;;;;5008349;28;20681;-69
2023/12/21 07:53:08;;;;;;;8.90;8.20;;;9.00;1.00;;;;;;5017294;28;20327;-69
2023/12/21 07:55:35;;;;;;;11.77;8.93;;;9.00;1.00;;;;;;5008335;28;20197;-69
2023/12/21 07:58:02;;;;;;;9.20;8.20;;;9.00;1.00;;;;;;5001745;28;20565;-69
2023/12/21 08:00:29;;;;;;;10.90;9.73;;;8.90;1.00;;;;;;5008620;28;20193;-69
2023/12/21 08:02:56;;;;;;;9.30;8.40;;;8.90;1.00;;;;;;5009350;28;20185;-69
2023/12/21 08:05:24;;;;;;;10.07;9.07;;;8.90;1.00;;;;;;4994079;28;20881;-69
2023/12/21 08:07:51;;;;;;;11.30;8.77;;;8.90;1.00;;;;;;4994067;28;20201;-69
2023/12/21 08:10:18;;;;;;;9.10;8.20;;;9.00;1.00;;;;;;5015445;28;20509;-69
2023/12/21 08:12:46;;;;;;;12.60;8.87;;;8.90;1.00;;;;;;5009991;28;20205;-69
2023/12/21 08:15:14;;;;;;;10.10;8.27;;;9.00;1.00;;;;;;5012492;28;20197;-69
2023/12/21 08:17:43;;;;;;;9.33;8.53;;;9.00;1.00;;;;;;4989519;28;20190;-69
2023/12/21 08:20:15;;;;;;;7.57;6.97;;;9.00;1.00;;;;;;5012264;28;20274;-69
2023/12/21 08:22:43;;;;;;;8.50;7.70;;;9.00;1.00;;;;;;5012429;28;20280;-70
2023/12/21 08:25:11;;;;;;;8.57;7.77;;;9.00;1.00;;;;;;5006745;28;20204;-68
2023/12/21 08:27:41;;;;;;;7.70;7.20;;;9.00;1.00;;;;;;4994962;28;20328;-69
2023/12/21 08:30:10;;;;;;;8.90;7.57;;;9.00;1.00;;;;;;5012715;28;20200;-69
2023/12/21 08:32:37;;;;;;;8.70;7.90;;;9.00;1.00;;;;;;5000984;28;20189;-69
2023/12/21 08:35:04;;;;;;;7.70;7.00;;;9.00;1.00;;;;;;5011530;28;20205;-69
2023/12/21 08:37:31;;;;;;;7.53;7.07;;;9.00;1.00;;;;;;5020802;28;20259;-69
2023/12/21 08:39:58;;;;;;;8.10;7.40;;;9.00;1.00;;;;;;4996493;28;20189;-69
2023/12/21 08:42:26;;;;;;;8.33;7.50;;;9.10;1.00;;;;;;4994657;28;20204;-69
2023/12/21 08:44:54;;;;;;;8.30;7.60;;;9.10;1.00;;;;;;5018053;28;20192;-69
2023/12/21 08:47:21;;;;;;;7.80;7.30;;;9.00;1.00;;;;;;5015691;28;20193;-69
2023/12/21 08:49:48;;;;;;;7.73;7.10;;;9.10;1.00;;;;;;4981190;28;20201;-68
2023/12/21 08:52:15;;;;;;;8.17;7.57;;;9.10;1.00;;;;;;4985522;28;20203;-70
2023/12/21 08:54:42;;;;;;;7.90;7.40;;;9.10;1.00;;;;;;5004341;28;20202;-70
2023/12/21 08:57:11;;;;;;;7.83;7.33;;;9.10;1.00;;;;;;5014268;28;20295;-69
2023/12/21 08:59:38;;;;;;;7.47;6.87;;;9.10;1.00;;;;;;5016583;28;20725;-70
2023/12/21 09:02:05;;;;;;;7.13;6.60;;;9.10;1.00;;;;;;5010473;28;20878;-70
2023/12/21 09:04:32;;;;;;;7.00;6.50;;;9.10;1.00;;;;;;5025092;28;20296;-68
2023/12/21 09:07:00;;;;;;;7.53;7.03;;;9.10;1.00;;;;;;5008778;28;20200;-70
2023/12/21 09:09:28;;;;;;;7.37;6.87;;;9.10;1.00;;;;;;4998225;28;20197;-69
2023/12/21 09:11:55;;;;;;;7.73;7.13;;;9.10;1.00;;;;;;4998002;28;20205;-69
2023/12/21 09:14:24;;;;;;;7.63;7.03;;;9.10;1.00;;;;;;5017359;28;20704;-70
2023/12/21 09:16:54;;;;;;;7.27;6.77;;;9.20;1.00;;;;;;4992943;28;20193;-72
2023/12/21 09:19:21;;;;;;;7.20;6.70;;;9.20;1.00;;;;;;5010824;28;20542;-65
2023/12/21 09:21:51;;;;;;;7.73;7.10;;;9.20;1.00;;;;;;5010592;28;20193;-65
2023/12/21 09:24:18;;;;;;;7.57;6.97;;;9.20;1.00;;;;;;5003034;28;20774;-66
2023/12/21 09:26:45;;;;;;;7.70;7.20;;;9.20;1.00;;;;;;5014163;28;20213;-65
2023/12/21 09:29:13;;;;;;;7.50;7.10;;;9.20;1.00;;;;;;4992530;28;20537;-67
2023/12/21 09:31:40;;;;;;;7.70;7.20;;;9.20;1.00;;;;;;4986368;28;20658;-65
2023/12/21 09:34:07;;;;;;;8.10;7.40;;;9.20;1.00;;;;;;5016581;28;20210;-65
2023/12/21 09:36:35;;;;;;;7.77;7.33;;;9.20;1.00;;;;;;4999343;28;20192;-65
2023/12/21 09:39:03;;;;;;;8.67;7.97;;;9.20;1.00;;;;;;5015998;28;20553;-64
2023/12/21 09:41:30;;;;;;;8.60;7.97;;;9.30;1.00;;;;;;4997145;28;20193;-70
2023/12/21 09:43:59;;;;;;;8.47;7.77;;;9.30;1.00;;;;;;4996883;28;20207;-69
2023/12/21 09:46:28;;;;;;;8.50;7.90;;;9.20;1.00;;;;;;4990326;28;20197;-70
2023/12/21 09:48:55;;;;;;;8.90;8.10;;;9.30;1.00;;;;;;5003235;28;20552;-69
2023/12/21 09:51:24;;;;;;;7.87;7.37;;;9.30;1.00;;;;;;5007605;28;20279;-70
2023/12/21 09:53:53;;;;;;;8.10;7.50;;;9.30;1.00;;;;;;5011153;28;20208;-69
2023/12/21 09:56:22;;;;;;;8.10;7.50;;;9.40;1.00;;;;;;4988874;28;20201;-70
2023/12/21 09:58:49;;;;;;;8.00;7.40;;;9.30;1.00;;;;;;5003059;28;20330;-69
2023/12/21 10:01:17;;;;;;;8.27;7.57;;;9.40;1.00;;;;;;5009935;28;20204;-70
2023/12/21 10:03:44;;;;;;;8.43;7.80;;;9.40;1.00;;;;;;5017527;28;20201;-70
2023/12/21 10:06:12;;;;;;;8.53;8.03;;;9.40;1.00;;;;;;5009539;28;20292;-69
2023/12/21 10:08:39;;;;;;;8.73;8.13;;;9.40;1.00;;;;;;4992422;28;20200;-69
2023/12/21 10:11:06;;;;;;;9.43;8.73;;;9.40;1.00;;;;;;4991473;28;20208;-70
2023/12/21 10:13:34;;;;;;;8.97;8.37;;;9.40;1.00;;;;;;5012644;28;20201;-70
2023/12/21 10:16:05;;;;;;;10.03;9.33;;;9.40;1.00;;;;;;5009837;28;20249;-70
2023/12/21 10:18:32;;;;;;;10.13;9.23;;;9.40;1.00;;;;;;5011341;28;20208;-70
2023/12/21 10:20:59;;;;;;;10.90;9.80;;;9.50;1.00;;;;;;4992007;28;20208;-70
2023/12/21 10:23:26;;;;;;;8.07;7.57;;;9.50;1.00;;;;;;5009342;28;20260;-70
2023/12/21 10:25:58;;;;;;;7.90;7.50;;;9.50;1.00;;;;;;5004618;28;20197;-70
2023/12/21 10:28:25;;;;;;;8.00;7.40;;;9.50;1.00;;;;;;5007905;28;20337;-70
2023/12/21 10:30:57;;;;;;;8.50;7.90;;;9.50;1.00;;;;;;5008339;28;20209;-70
2023/12/21 10:33:28;;;;;;;8.57;8.07;;;9.50;1.00;;;;;;4993124;28;20213;-69
2023/12/21 10:35:55;;;;;;;9.67;8.90;;;9.50;1.00;;;;;;4990219;28;20215;-69
2023/12/21 10:38:22;;;;;;;8.87;8.27;;;9.50;1.00;;;;;;5010885;28;20189;-69
2023/12/21 10:40:49;;;;;;;9.07;8.37;;;9.60;1.00;;;;;;5011297;28;20189;-70
2023/12/21 10:43:17;;;;;;;9.33;8.63;;;9.60;1.00;;;;;;5001909;28;20200;-70
2023/12/21 10:45:48;;;;;;;10.23;9.53;;;9.60;1.00;;;;;;5007756;28;20475;-69
2023/12/21 10:48:17;;;;;;;10.50;9.67;;;9.60;1.00;;;;;;5009620;28;20201;-70
2023/12/21 10:50:47;;;;;;;10.23;9.43;;;9.60;1.00;;;;;;5008216;28;20197;-70
2023/12/21 10:53:19;;;;;;;9.60;8.90;;;9.60;1.00;;;;;;4991120;28;20193;-69
2023/12/21 10:55:48;;;;;;;10.33;9.33;;;9.60;1.00;;;;;;5004974;28;20216;-70
2023/12/21 10:58:16;;;;;;;9.77;9.00;;;9.60;1.00;;;;;;5005726;28;20223;-73
2023/12/21 11:00:44;;;;;;;10.10;9.40;;;9.60;1.00;;;;;;5013596;28;20251;-69
2023/12/21 11:03:16;;;;;;;9.80;9.03;;;9.70;1.00;;;;;;5008591;28;20192;-69
2023/12/21 11:05:47;;;;;;;8.17;7.67;;;9.70;1.00;;;;;;5012724;28;20573;-68
2023/12/21 11:08:14;;;;;;;8.77;8.17;;;9.70;1.00;;;;;;5018271;28;20652;-68
2023/12/21 11:10:43;;;;;;;8.33;7.83;;;9.70;1.00;;;;;;5005670;28;20197;-69
2023/12/21 11:13:10;;;;;;;9.30;8.50;;;9.70;1.00;;;;;;4971375;28;20206;-69
2023/12/21 11:15:37;;;;;;;8.97;8.37;;;9.80;1.00;;;;;;4988993;28;20642;-70
2023/12/21 11:18:11;;;;;;;9.00;8.50;;;9.70;1.00;;;;;;5008453;28;20193;-70
2023/12/21 11:20:52;;;;;;;9.80;9.10;;;9.80;1.00;;;;;;5005738;28;20370;-69
2023/12/21 11:23:23;;;;;;;9.47;8.77;;;9.80;1.00;;;;;;5009572;28;20721;-69
2023/12/21 11:25:57;;;;;;;9.20;8.60;;;9.80;1.00;;;;;;5008418;28;20215;-70
2023/12/21 11:28:31;;;;;;;9.53;8.83;;;9.70;1.00;;;;;;5002033;28;20736;-69
2023/12/21 11:30:58;;;;;;;9.33;8.77;;;9.70;1.00;;;;;;4994332;28;20262;-70
2023/12/21 11:33:29;;;;;;;9.00;8.10;;;9.80;1.00;;;;;;5005620;28;20213;-68
2023/12/21 11:35:57;;;;;;;8.80;8.20;;;9.80;1.00;;;;;;4999652;28;20205;-69
2023/12/21 11:38:51;;;;;;;8.53;8.03;;;9.80;1.00;;;;;;5010978;28;20658;-68
2023/12/21 11:41:23;;;;;;;8.10;7.50;;;9.90;1.00;;;;;;5007639;28;20193;-70
2023/12/21 11:44:03;;;;;;;7.83;7.43;;;9.90;1.00;;;;;;4994493;28;20653;-70
2023/12/21 11:46:35;;;;;;;7.97;7.47;;;9.90;1.00;;;;;;5012068;28;20589;-70
2023/12/21 11:49:04;;;;;;;8.00;7.50;;;9.90;1.00;;;;;;5016603;28;20596;-69
2023/12/21 11:51:32;;;;;;;8.30;7.80;;;9.90;1.00;;;;;;5011594;28;20215;-68
2023/12/21 11:54:05;;;;;;;7.90;7.40;;;10.00;1.00;;;;;;4984422;28;20663;-68
2023/12/21 11:56:36;;;;;;;8.20;7.50;;;10.10;1.00;;;;;;5026972;28;20670;-69
2023/12/21 11:59:06;;;;;;;7.70;7.30;;;10.20;1.00;;;;;;5011380;28;20211;-72
2023/12/21 12:01:34;;;;;;;8.30;7.90;;;10.30;1.00;;;;;;5001212;28;20190;-70
2023/12/21 12:04:05;;;;;;;8.47;7.80;;;10.30;1.00;;;;;;4993239;28;20193;-69
2023/12/21 12:06:32;;;;;;;8.50;7.70;;;10.30;1.00;;;;;;5007119;28;20197;-69
2023/12/21 12:09:00;;;;;;;8.03;7.43;;;10.30;1.00;;;;;;4993411;28;20208;-73
2023/12/21 12:11:27;;;;;;;8.97;8.03;;;10.30;1.00;;;;;;5015667;28;20239;-74
2023/12/21 12:13:56;;;;;;;8.73;8.13;;;10.30;1.00;;;;;;5002407;28;20589;-70
2023/12/21 12:16:23;;;;;;;8.57;8.00;;;10.30;1.00;;;;;;4993116;28;20236;-70
2023/12/21 12:18:50;;;;;;;9.47;8.50;;;10.30;1.00;;;;;;5011563;28;20208;-71
2023/12/21 12:21:17;;;;;;;8.70;8.20;;;10.30;1.00;;;;;;5011184;28;20204;-73
2023/12/21 12:23:47;;;;;;;8.73;8.20;;;10.30;1.00;;;;;;5011933;28;20196;-70
2023/12/21 12:26:15;;;;;;;10.40;8.10;;;10.30;1.00;;;;;;4986929;28;20200;-70
2023/12/21 12:28:46;;;;;;;8.67;8.10;;;10.30;99.90;;;;;;5003727;28;20253;-70
2023/12/21 12:31:13;;;;;;;8.17;7.47;;;10.40;99.90;;;;;;4989194;28;20200;-70
2023/12/21 12:33:40;;;;;;;8.47;7.97;;;10.30;1.00;;;;;;5014672;28;20192;-70
2023/12/21 12:36:08;;;;;;;8.90;8.20;;;10.40;99.90;;;;;;5010131;28;20299;-70
2023/12/21 12:38:35;;;;;;;9.07;8.13;;;10.40;1.00;;;;;;5008733;28;20642;-70
2023/12/21 12:41:02;;;;;;;8.50;8.00;;;10.40;1.00;;;;;;5017741;28;20234;-70
2023/12/21 12:43:34;;;;;;;9.57;8.77;;;10.50;99.90;;;;;;4992022;28;20477;-69
2023/12/21 12:46:04;;;;;;;10.53;9.60;;;10.60;99.90;;;;;;4979559;28;20294;-70
2023/12/21 12:48:31;;;;;;;10.93;10.13;;;10.70;99.90;;;;;;5008735;28;20205;-70
2023/12/21 12:50:58;;;;;;;11.50;10.70;;;10.90;99.90;;;;;;4986269;28;20209;-77
2023/12/21 12:53:25;;;;;;;12.50;11.40;;;10.90;99.90;;;;;;5009980;28;20251;-64
2023/12/21 12:55:55;;;;;;;12.93;11.93;;;11.00;99.90;;;;;;5010962;28;20213;-65
2023/12/21 12:58:24;;;;;;;13.43;12.33;;;11.30;99.90;;;;;;5008206;28;20268;-64
2023/12/21 13:00:51;;;;;;;13.37;12.57;;;11.40;99.90;;;;;;5002469;28;20189;-64
2023/12/21 13:03:18;;;;;;;14.33;13.20;;;11.30;99.90;;;;;;5004397;28;20189;-64
2023/12/21 13:05:45;;;;;;;14.03;13.23;;;11.10;99.90;;;;;;5004674;28;20288;-64
2023/12/21 13:08:13;;;;;;;14.67;13.43;;;11.00;99.90;;;;;;5004741;28;20244;-66